Time;durP1;ratioP1;P1;durP2;ratioP2;P2;SDS_P1;SDS_P2;PMS_P1;PMS_P2;Temp;Humidity;BMP_temperature;BMP_pressure;BME280_temperature;BME280_humidity;BME280_pressure;Samples;Min_cycle;Max_cycle;Signal;HPM_P1;HPM_P2
2023/05/31 00:00:30;;;;;;;1.13;0.57;;;24.20;48.20;;;;;;6375445;28;20039;-45
2023/05/31 00:03:32;;;;;;;0.90;0.73;;;24.30;48.30;;;;;;6377387;28;20039;-44
2023/05/31 00:06:33;;;;;;;0.95;0.70;;;24.40;48.30;;;;;;6377523;28;20039;-48
2023/05/31 00:09:36;;;;;;;0.70;0.60;;;24.40;48.60;;;;;;6378795;27;20061;-43
2023/05/31 00:12:40;;;;;;;1.13;0.88;;;24.20;48.20;;;;;;6377482;28;20039;-44
2023/05/31 00:15:42;;;;;;;0.63;0.50;;;24.30;48.30;;;;;;6377861;28;20035;-46
2023/05/31 00:18:43;;;;;;;0.88;0.63;;;24.30;48.30;;;;;;6378073;28;20050;-48
2023/05/31 00:21:45;;;;;;;0.88;0.80;;;24.30;48.30;;;;;;6376098;28;20040;-45
2023/05/31 00:24:50;;;;;;;1.45;0.80;;;24.30;48.00;;;;;;6377790;28;20050;-46
2023/05/31 00:27:52;;;;;;;1.65;0.80;;;24.30;48.00;;;;;;6377874;28;20050;-43
2023/05/31 00:30:53;;;;;;;0.98;0.70;;;24.30;48.20;;;;;;6377735;28;20091;-46
2023/05/31 00:33:56;;;;;;;0.88;0.88;;;24.20;48.10;;;;;;6377618;28;20067;-42
2023/05/31 00:36:59;;;;;;;1.30;0.70;;;24.30;48.30;;;;;;6376851;28;20028;-48
2023/05/31 00:40:01;;;;;;;0.80;0.80;;;24.20;48.00;;;;;;6376032;28;20042;-46
2023/05/31 00:43:02;;;;;;;1.42;0.65;;;24.20;48.00;;;;;;6376331;28;20043;-44
2023/05/31 00:46:04;;;;;;;0.80;0.70;;;24.10;47.90;;;;;;6375766;28;20065;-45
2023/05/31 00:49:09;;;;;;;0.85;0.60;;;24.30;48.20;;;;;;6376055;28;20070;-47
2023/05/31 00:52:11;;;;;;;1.10;0.80;;;23.80;47.90;;;;;;6377179;28;20046;-50
2023/05/31 00:55:13;;;;;;;0.75;0.50;;;24.30;48.00;;;;;;6377193;28;20035;-44
2023/05/31 00:58:16;;;;;;;0.80;0.80;;;24.10;47.90;;;;;;6377698;28;20039;-42
2023/05/31 01:01:18;;;;;;;1.00;0.60;;;24.20;47.90;;;;;;6379773;28;20051;-42
2023/05/31 01:04:21;;;;;;;0.68;0.57;;;24.20;47.90;;;;;;6380272;28;20036;-49
2023/05/31 01:07:22;;;;;;;0.80;0.60;;;24.00;48.10;;;;;;6361994;28;20043;-59
2023/05/31 01:10:26;;;;;;;1.45;0.80;;;24.20;48.60;;;;;;6344044;28;20115;-60
2023/05/31 01:13:35;;;;;;;0.55;0.55;;;24.20;48.30;;;;;;6343771;28;20044;-60
2023/05/31 01:16:43;;;;;;;1.23;0.80;;;24.20;48.10;;;;;;6343807;28;20032;-59
2023/05/31 01:19:48;;;;;;;1.23;0.82;;;23.90;47.90;;;;;;6343563;28;20047;-59
2023/05/31 01:23:04;;;;;;;1.00;0.80;;;24.20;48.00;;;;;;6320945;22;20083;-55
2023/05/31 01:26:24;;;;;;;0.80;0.60;;;24.00;48.20;;;;;;6292521;28;20494;-53
2023/05/31 01:29:30;;;;;;;0.88;0.50;;;24.10;48.20;;;;;;6292453;28;20040;-53
2023/05/31 01:32:33;;;;;;;1.15;0.88;;;24.00;48.20;;;;;;6291865;28;20032;-55
2023/05/31 01:35:37;;;;;;;0.73;0.60;;;23.90;48.10;;;;;;6291778;28;20480;-55
2023/05/31 01:38:39;;;;;;;1.05;0.70;;;24.00;48.40;;;;;;6292064;28;20537;-55
2023/05/31 01:41:45;;;;;;;0.60;0.60;;;24.00;48.20;;;;;;6291569;28;20063;-55
2023/05/31 01:44:48;;;;;;;1.25;0.90;;;24.00;48.20;;;;;;6273199;28;20403;-54
2023/05/31 01:47:54;;;;;;;0.80;0.60;;;23.90;48.00;;;;;;6291066;28;20032;-55
2023/05/31 01:50:59;;;;;;;0.90;0.63;;;24.10;48.10;;;;;;6290933;28;20422;-55
2023/05/31 01:54:03;;;;;;;0.75;0.60;;;24.00;48.10;;;;;;6291538;28;20064;-55
2023/05/31 01:57:09;;;;;;;0.77;0.60;;;23.90;48.10;;;;;;6291482;28;20077;-55
2023/05/31 02:00:14;;;;;;;1.10;0.75;;;24.00;48.20;;;;;;6291233;28;20044;-55
2023/05/31 02:03:16;;;;;;;0.65;0.50;;;23.90;48.10;;;;;;6292274;28;20491;-55
2023/05/31 02:06:18;;;;;;;0.65;0.50;;;23.50;47.90;;;;;;6292728;28;20127;-55
2023/05/31 02:09:21;;;;;;;0.60;0.50;;;24.00;48.20;;;;;;6291308;28;20040;-55
2023/05/31 02:12:22;;;;;;;1.30;0.75;;;23.90;48.10;;;;;;6290366;28;20051;-55
2023/05/31 02:15:24;;;;;;;0.75;0.60;;;23.80;48.10;;;;;;6291854;28;20052;-54
2023/05/31 02:18:27;;;;;;;0.57;0.50;;;23.80;48.20;;;;;;6291751;28;20502;-53
2023/05/31 02:21:33;;;;;;;1.05;0.52;;;24.00;48.20;;;;;;6291422;28;20410;-55
2023/05/31 02:24:35;;;;;;;1.27;0.82;;;23.90;48.10;;;;;;6272240;28;20423;-54
2023/05/31 02:27:36;;;;;;;1.17;0.75;;;23.70;48.10;;;;;;6291039;28;20044;-54
2023/05/31 02:30:53;;;;;;;0.63;0.55;;;23.90;47.90;;;;;;6290985;28;20128;-55
2023/05/31 02:33:57;;;;;;;0.98;0.60;;;23.50;47.90;;;;;;6290509;28;20098;-55
2023/05/31 02:37:02;;;;;;;1.35;0.77;;;23.40;47.90;;;;;;6289187;28;20040;-54
2023/05/31 02:40:08;;;;;;;1.02;0.75;;;23.90;48.40;;;;;;6290832;28;20040;-55
2023/05/31 02:43:12;;;;;;;0.77;0.52;;;23.90;48.20;;;;;;6290428;28;20411;-55
2023/05/31 02:46:14;;;;;;;0.75;0.65;;;23.70;48.10;;;;;;6290360;28;20089;-55
2023/05/31 02:49:18;;;;;;;0.70;0.60;;;23.40;47.80;;;;;;6291156;28;20047;-55
2023/05/31 02:52:20;;;;;;;1.20;0.60;;;23.50;48.10;;;;;;6290894;28;20542;-54
2023/05/31 02:55:42;;;;;;;0.60;0.52;;;23.60;48.10;;;;;;6290636;28;20041;-55
2023/05/31 02:58:55;;;;;;;0.70;0.60;;;23.70;48.40;;;;;;6290365;28;20292;-54
2023/05/31 03:02:09;;;;;;;0.60;0.40;;;23.90;48.00;;;;;;6290273;28;20491;-53
2023/05/31 03:05:23;;;;;;;1.20;0.80;;;23.80;48.20;;;;;;6290317;28;20067;-54
2023/05/31 03:08:25;;;;;;;0.60;0.60;;;23.80;48.10;;;;;;6290444;28;20062;-55
2023/05/31 03:11:26;;;;;;;0.70;0.50;;;23.70;48.40;;;;;;6288617;28;20041;-55
2023/05/31 03:14:28;;;;;;;0.57;0.47;;;23.80;48.20;;;;;;6290220;28;20101;-55
2023/05/31 03:17:30;;;;;;;0.82;0.70;;;23.60;48.20;;;;;;6290292;28;20058;-54
2023/05/31 03:20:33;;;;;;;0.50;0.45;;;23.40;48.00;;;;;;6289750;28;20070;-53
2023/05/31 03:23:35;;;;;;;0.60;0.50;;;23.90;48.30;;;;;;6298816;28;20045;-57
2023/05/31 03:26:37;;;;;;;1.20;0.47;;;23.80;48.30;;;;;;6319376;28;20040;-58
2023/05/31 03:29:42;;;;;;;1.10;0.65;;;23.60;48.30;;;;;;6318312;28;20092;-57
2023/05/31 03:32:45;;;;;;;0.73;0.60;;;23.70;48.30;;;;;;6318516;28;20048;-57
2023/05/31 03:35:47;;;;;;;0.57;0.57;;;23.70;48.30;;;;;;6319140;28;20040;-57
2023/05/31 03:38:51;;;;;;;0.73;0.70;;;23.90;48.50;;;;;;6318047;28;20055;-57
2023/05/31 03:41:53;;;;;;;1.42;0.70;;;23.60;48.50;;;;;;6316806;28;20048;-57
2023/05/31 03:44:55;;;;;;;0.60;0.50;;;23.70;48.50;;;;;;6318118;28;20036;-57
2023/05/31 03:47:57;;;;;;;0.63;0.63;;;23.70;48.50;;;;;;6314053;28;20036;-57
2023/05/31 03:50:58;;;;;;;0.75;0.68;;;23.70;48.50;;;;;;6313038;28;20101;-57
2023/05/31 03:54:00;;;;;;;0.70;0.50;;;23.60;48.70;;;;;;6313634;28;20040;-57
2023/05/31 03:57:02;;;;;;;0.70;0.65;;;23.50;48.40;;;;;;6313969;28;20043;-57
2023/05/31 04:00:05;;;;;;;0.73;0.73;;;23.70;48.00;;;;;;6311702;28;20067;-57
2023/05/31 04:03:15;;;;;;;1.15;0.88;;;23.70;47.90;;;;;;6310492;28;20435;-55
2023/05/31 04:06:17;;;;;;;1.10;0.75;;;23.60;48.20;;;;;;6309007;28;20043;-57
2023/05/31 04:09:19;;;;;;;1.13;0.70;;;23.40;48.10;;;;;;6311667;28;20567;-58
2023/05/31 04:12:20;;;;;;;0.85;0.80;;;23.60;48.10;;;;;;6311215;28;20129;-57
2023/05/31 04:15:22;;;;;;;0.85;0.70;;;23.20;47.80;;;;;;6311213;28;20037;-58
2023/05/31 04:18:26;;;;;;;0.90;0.77;;;23.40;48.20;;;;;;6311469;28;20029;-57
2023/05/31 04:21:28;;;;;;;0.73;0.68;;;23.70;48.30;;;;;;6311106;28;20028;-57
2023/05/31 04:24:35;;;;;;;0.85;0.70;;;23.70;48.70;;;;;;6323162;28;20033;-57
2023/05/31 04:27:40;;;;;;;0.70;0.70;;;23.30;48.50;;;;;;6323826;28;20033;-57
2023/05/31 04:30:44;;;;;;;0.60;0.52;;;23.60;48.60;;;;;;6326671;28;20020;-57
2023/05/31 04:33:46;;;;;;;1.10;0.70;;;23.60;48.70;;;;;;6325630;28;20036;-57
2023/05/31 04:36:49;;;;;;;0.80;0.65;;;23.60;48.90;;;;;;6319785;28;20036;-57
2023/05/31 04:39:53;;;;;;;0.88;0.70;;;23.50;48.70;;;;;;6319698;28;20108;-57
2023/05/31 04:42:56;;;;;;;1.17;1.00;;;23.40;48.90;;;;;;6320369;28;20045;-57
2023/05/31 04:46:01;;;;;;;1.02;0.90;;;23.60;49.10;;;;;;6320199;28;20108;-57
2023/05/31 04:49:04;;;;;;;0.70;0.70;;;23.30;49.00;;;;;;6317495;28;20036;-57
2023/05/31 04:52:09;;;;;;;1.00;0.75;;;23.60;48.90;;;;;;6316292;28;20056;-57
2023/05/31 04:55:11;;;;;;;1.38;0.80;;;23.60;49.10;;;;;;6315410;28;20301;-57
2023/05/31 04:58:13;;;;;;;5.45;2.33;;;23.40;49.20;;;;;;6321296;28;20032;-57
2023/05/31 05:01:14;;;;;;;5.70;3.90;;;23.60;50.00;;;;;;6325461;28;20054;-57
2023/05/31 05:04:25;;;;;;;7.50;4.68;;;23.50;49.90;;;;;;6325009;28;20025;-57
2023/05/31 05:07:27;;;;;;;8.75;5.43;;;23.20;49.60;;;;;;6323880;28;20039;-58
2023/05/31 05:10:29;;;;;;;7.60;5.00;;;23.20;49.70;;;;;;6322523;28;20044;-57
2023/05/31 05:13:31;;;;;;;8.00;5.82;;;23.10;50.40;;;;;;6320640;28;20040;-58
2023/05/31 05:16:33;;;;;;;6.75;5.30;;;22.80;48.90;;;;;;6324829;28;20073;-58
2023/05/31 05:19:35;;;;;;;7.55;5.38;;;22.80;51.00;;;;;;6324379;28;20024;-58
2023/05/31 05:22:37;;;;;;;5.88;4.10;;;22.50;51.00;;;;;;6324154;28;20032;-57
2023/05/31 05:25:39;;;;;;;5.88;3.55;;;22.80;52.20;;;;;;6294527;28;20024;-54
2023/05/31 05:28:41;;;;;;;5.10;3.15;;;22.60;51.20;;;;;;6289880;28;20368;-55
2023/05/31 05:31:44;;;;;;;4.45;2.30;;;22.30;51.40;;;;;;6289013;28;20131;-56
2023/05/31 05:34:46;;;;;;;3.38;2.60;;;22.80;49.70;;;;;;6289503;28;20437;-55
2023/05/31 05:37:48;;;;;;;4.60;2.35;;;22.30;51.30;;;;;;6281796;28;20423;-54
2023/05/31 05:40:50;;;;;;;2.30;2.03;;;22.90;51.70;;;;;;6288959;28;20158;-53
2023/05/31 05:43:52;;;;;;;3.60;1.90;;;22.90;78.70;;;;;;6287578;28;20043;-56
2023/05/31 05:46:56;;;;;;;2.78;2.17;;;22.60;60.20;;;;;;6287753;28;20115;-53
2023/05/31 05:49:59;;;;;;;2.40;2.00;;;23.00;50.70;;;;;;6285665;28;20055;-54
2023/05/31 05:53:01;;;;;;;1.90;1.80;;;22.90;50.30;;;;;;6287212;28;20102;-55
2023/05/31 05:56:06;;;;;;;1.73;1.50;;;22.60;65.30;;;;;;6287428;28;20119;-56
2023/05/31 05:59:17;;;;;;;2.60;1.60;;;22.90;48.10;;;;;;6284659;28;20217;-55
2023/05/31 06:02:29;;;;;;;2.72;1.67;;;23.00;50.70;;;;;;6271077;28;20242;-53
2023/05/31 06:05:31;;;;;;;2.75;1.83;;;22.90;50.50;;;;;;6256236;28;20035;-55
2023/05/31 06:08:33;;;;;;;2.70;1.60;;;23.10;50.70;;;;;;6275825;28;20100;-54
2023/05/31 06:11:35;;;;;;;1.55;1.20;;;22.70;50.30;;;;;;6278928;28;20037;-49
2023/05/31 06:14:36;;;;;;;1.90;1.58;;;23.10;50.80;;;;;;6259780;28;20351;-51
2023/05/31 06:17:41;;;;;;;1.60;1.48;;;22.90;50.70;;;;;;6271946;28;20458;-53
2023/05/31 06:20:43;;;;;;;1.60;1.35;;;23.00;50.80;;;;;;6254176;28;20040;-53
2023/05/31 06:23:45;;;;;;;1.35;1.20;;;23.10;50.60;;;;;;6245761;28;20147;-50
2023/05/31 06:26:47;;;;;;;1.35;1.25;;;23.20;50.90;;;;;;6236160;28;20029;-53
2023/05/31 06:29:54;;;;;;;1.13;1.02;;;23.10;50.70;;;;;;6241155;28;20061;-51
2023/05/31 06:33:03;;;;;;;1.20;1.10;;;23.20;50.80;;;;;;6254269;28;20135;-51
2023/05/31 06:36:07;;;;;;;1.95;1.30;;;23.30;50.80;;;;;;6252257;28;20658;-52
2023/05/31 06:39:09;;;;;;;1.20;1.10;;;23.10;50.70;;;;;;6252000;28;20749;-54
2023/05/31 06:42:11;;;;;;;1.92;1.10;;;23.00;50.50;;;;;;6247948;28;20056;-55
2023/05/31 06:45:32;;;;;;;1.20;1.10;;;23.20;51.00;;;;;;6248380;28;20132;-53
2023/05/31 06:48:54;;;;;;;1.20;1.10;;;22.90;50.70;;;;;;6216447;28;20110;-52
2023/05/31 06:52:25;;;;;;;1.55;1.27;;;23.20;50.90;;;;;;6258529;28;20680;-53
2023/05/31 06:55:45;;;;;;;3.10;1.40;;;23.10;51.30;;;;;;6269847;28;20052;-55
2023/05/31 06:58:50;;;;;;;2.47;1.60;;;23.40;51.00;;;;;;6262106;28;20070;-57
2023/05/31 07:01:54;;;;;;;2.60;2.00;;;23.20;50.80;;;;;;6258832;28;20103;-52
2023/05/31 07:04:55;;;;;;;3.15;2.45;;;23.40;51.10;;;;;;6256896;28;20205;-54
2023/05/31 07:07:58;;;;;;;4.65;2.13;;;23.40;50.70;;;;;;6245327;28;20044;-51
2023/05/31 07:11:02;;;;;;;3.78;2.00;;;23.50;50.70;;;;;;6254547;28;20174;-59
2023/05/31 07:14:07;;;;;;;2.88;1.98;;;22.90;50.50;;;;;;6226916;28;20098;-58
2023/05/31 07:17:10;;;;;;;2.30;1.70;;;23.20;50.70;;;;;;6231235;28;20661;-61
2023/05/31 07:20:11;;;;;;;2.95;1.58;;;23.50;50.60;;;;;;6258941;28;20039;-59
2023/05/31 07:23:14;;;;;;;2.42;1.75;;;23.50;50.90;;;;;;6258668;28;20059;-58
2023/05/31 07:26:15;;;;;;;2.65;1.48;;;23.50;50.80;;;;;;6246587;28;20110;-59
2023/05/31 07:31:39;;;;;;;1.80;1.70;;;23.30;63.60;;;;;;6437711;27;20297;-50
2023/05/31 07:34:42;;;;;;;2.65;1.60;;;23.60;65.90;;;;;;6412479;27;20105;-55
2023/05/31 07:38:03;;;;;;;3.38;1.70;;;;;;;;;;6395574;27;20041;-49
2023/05/31 07:41:05;;;;;;;2.85;1.63;;;23.60;64.90;;;;;;6408302;27;20030;-58
2023/05/31 07:44:08;;;;;;;2.40;1.20;;;24.10;71.70;;;;;;6407540;27;20038;-56
2023/05/31 07:47:11;;;;;;;2.25;1.42;;;23.80;52.30;;;;;;6408230;27;20053;-53
2023/05/31 07:50:12;;;;;;;1.95;1.20;;;23.80;51.80;;;;;;6401406;27;20042;-54
2023/05/31 07:53:14;;;;;;;3.47;1.48;;;23.50;52.10;;;;;;6411870;27;20384;-53
2023/05/31 07:56:15;;;;;;;2.05;1.60;;;23.80;51.40;;;;;;6391123;27;20037;-54
2023/05/31 07:59:17;;;;;;;2.55;1.27;;;23.90;51.50;;;;;;6392858;27;20034;-50
2023/05/31 08:02:21;;;;;;;3.97;1.50;;;23.70;50.60;;;;;;6392561;27;20516;-52
2023/05/31 08:05:22;;;;;;;2.97;1.42;;;23.90;48.80;;;;;;6390927;27;20046;-52
2023/05/31 08:08:24;;;;;;;1.45;1.35;;;23.70;50.20;;;;;;6372403;27;20034;-55
2023/05/31 08:11:25;;;;;;;2.92;1.42;;;23.90;49.80;;;;;;6393703;27;20111;-53
2023/05/31 08:14:27;;;;;;;2.75;1.60;;;24.10;50.00;;;;;;6393915;27;20665;-51
2023/05/31 08:17:31;;;;;;;1.83;1.02;;;24.00;49.60;;;;;;6308328;27;20091;-54
2023/05/31 08:20:34;;;;;;;1.55;1.15;;;24.10;49.70;;;;;;6387958;27;20058;-54
2023/05/31 08:23:35;;;;;;;1.20;1.10;;;24.70;49.70;;;;;;6388931;27;20105;-55
2023/05/31 08:26:37;;;;;;;1.80;1.20;;;24.30;49.70;;;;;;6393471;27;20031;-53
2023/05/31 08:29:38;;;;;;;1.42;1.33;;;24.00;49.30;;;;;;6394687;27;20041;-57
2023/05/31 08:32:40;;;;;;;1.83;1.10;;;24.00;49.30;;;;;;6395506;27;20035;-56
2023/05/31 08:35:42;;;;;;;0.95;0.88;;;24.20;49.20;;;;;;6377007;27;20035;-54
2023/05/31 08:38:44;;;;;;;2.53;1.25;;;24.00;49.20;;;;;;6381416;27;20102;-54
2023/05/31 08:41:51;;;;;;;2.45;1.10;;;24.30;49.10;;;;;;6355085;27;20038;-52
2023/05/31 08:44:53;;;;;;;2.15;1.40;;;24.50;49.10;;;;;;6333819;27;20038;-57
2023/05/31 08:48:03;;;;;;;2.95;1.20;;;24.50;48.90;;;;;;6378861;27;20035;-54
2023/05/31 08:51:07;;;;;;;2.72;1.10;;;24.20;48.60;;;;;;6372147;27;20122;-55
2023/05/31 08:54:10;;;;;;;2.45;1.13;;;24.40;49.00;;;;;;6371287;27;20035;-54
2023/05/31 08:57:12;;;;;;;1.40;1.30;;;24.10;48.80;;;;;;6359267;27;20034;-54
2023/05/31 09:00:15;;;;;;;1.52;1.10;;;24.10;49.00;;;;;;6340640;27;20039;-57
2023/05/31 09:03:19;;;;;;;1.27;1.00;;;24.50;49.30;;;;;;6331472;27;20030;-54
2023/05/31 09:06:20;;;;;;;1.02;0.90;;;24.50;48.90;;;;;;6347362;27;20684;-53
2023/05/31 09:09:22;;;;;;;1.88;1.13;;;24.50;49.50;;;;;;6362595;27;20094;-53
2023/05/31 09:12:27;;;;;;;2.72;1.02;;;24.80;49.30;;;;;;6356291;27;20043;-52
2023/05/31 09:15:30;;;;;;;1.20;1.00;;;24.70;48.80;;;;;;6374498;27;20640;-57
2023/05/31 09:18:39;;;;;;;1.75;0.90;;;24.60;48.90;;;;;;6364358;27;20772;-57
2023/05/31 09:21:42;;;;;;;1.70;0.90;;;24.20;48.60;;;;;;6336991;27;20027;-55
2023/05/31 09:24:49;;;;;;;1.30;1.02;;;24.70;48.70;;;;;;6325758;27;20188;-52
2023/05/31 09:27:51;;;;;;;0.93;0.93;;;24.60;48.80;;;;;;6347167;27;20042;-52
2023/05/31 09:31:05;;;;;;;1.15;0.90;;;24.70;48.20;;;;;;6374383;27;20069;-58
2023/05/31 09:34:24;;;;;;;1.75;0.90;;;24.70;48.10;;;;;;6375962;27;20045;-56
2023/05/31 09:37:29;;;;;;;1.00;0.80;;;24.50;48.30;;;;;;6373914;27;20728;-60
2023/05/31 09:40:32;;;;;;;2.05;0.80;;;24.70;47.40;;;;;;6337282;27;20076;-60
2023/05/31 09:43:42;;;;;;;1.05;0.98;;;25.60;48.80;;;;;;6290210;27;20608;-59
2023/05/31 09:46:53;;;;;;;0.82;0.82;;;24.60;47.20;;;;;;6371238;27;20034;-58
2023/05/31 09:50:03;;;;;;;1.40;0.93;;;24.30;48.00;;;;;;6370659;27;20107;-58
2023/05/31 09:53:16;;;;;;;1.17;0.88;;;24.60;48.10;;;;;;6372106;27;20050;-59
2023/05/31 09:56:22;;;;;;;0.80;0.80;;;25.00;47.30;;;;;;6369583;27;20624;-58
2023/05/31 09:59:39;;;;;;;1.05;0.90;;;24.70;47.80;;;;;;6352030;27;20488;-58
2023/05/31 10:02:43;;;;;;;3.38;1.65;;;24.60;47.80;;;;;;6349645;27;20242;-58
2023/05/31 10:05:45;;;;;;;1.10;1.00;;;24.90;47.90;;;;;;6345368;27;20549;-57
2023/05/31 10:08:47;;;;;;;2.28;1.10;;;24.80;48.00;;;;;;6364628;27;20069;-58
2023/05/31 10:11:53;;;;;;;1.15;1.02;;;25.00;48.00;;;;;;6363855;27;20046;-54
2023/05/31 10:15:08;;;;;;;1.70;1.23;;;25.10;48.10;;;;;;6331737;27;20035;-57
2023/05/31 10:18:13;;;;;;;1.67;1.23;;;25.20;47.90;;;;;;6346851;27;20497;-58
2023/05/31 10:21:24;;;;;;;2.22;1.30;;;24.90;47.70;;;;;;6327836;27;20057;-54
2023/05/31 10:24:32;;;;;;;1.48;1.38;;;25.00;46.80;;;;;;6356511;27;20607;-57
2023/05/31 10:27:38;;;;;;;1.50;1.33;;;24.60;47.40;;;;;;6362790;27;20113;-57
2023/05/31 10:30:43;;;;;;;5.25;1.50;;;24.90;47.30;;;;;;6311294;27;20043;-58
2023/05/31 10:33:51;;;;;;;2.85;1.50;;;25.10;47.80;;;;;;6359341;27;20693;-58
2023/05/31 10:36:55;;;;;;;1.80;1.70;;;25.30;47.40;;;;;;6359795;27;20035;-58
2023/05/31 10:40:05;;;;;;;4.85;1.60;;;25.30;47.40;;;;;;6349044;27;20035;-57
2023/05/31 10:43:13;;;;;;;3.47;2.75;;;25.10;47.20;;;;;;6367732;27;20035;-56
2023/05/31 10:46:20;;;;;;;4.75;3.10;;;25.10;47.20;;;;;;6369449;27;20307;-56
2023/05/31 10:49:23;;;;;;;4.40;3.45;;;25.10;47.10;;;;;;6370553;27;20035;-57
2023/05/31 10:52:29;;;;;;;4.78;3.95;;;25.10;47.00;;;;;;6369304;27;20225;-56
2023/05/31 10:55:41;;;;;;;4.60;3.25;;;25.00;47.80;;;;;;6368478;27;20038;-56
2023/05/31 10:58:47;;;;;;;4.63;3.22;;;24.80;47.30;;;;;;6364557;27;20058;-56
2023/05/31 11:01:48;;;;;;;3.50;3.10;;;24.90;47.30;;;;;;6346208;27;20220;-55
2023/05/31 11:04:52;;;;;;;4.97;3.58;;;25.10;47.50;;;;;;6372372;27;20493;-52
2023/05/31 11:07:57;;;;;;;7.40;4.40;;;24.90;47.30;;;;;;6370193;27;20037;-54
2023/05/31 11:11:25;;;;;;;5.13;4.10;;;24.70;46.90;;;;;;6374762;27;20099;-56
2023/05/31 11:14:29;;;;;;;6.10;3.90;;;24.80;46.80;;;;;;6371791;27;20489;-54
2023/05/31 11:17:39;;;;;;;5.40;4.28;;;25.10;46.90;;;;;;6351972;27;20026;-56
2023/05/31 11:20:41;;;;;;;4.50;3.03;;;24.80;47.00;;;;;;6333108;27;20050;-56
2023/05/31 11:23:54;;;;;;;4.32;3.50;;;24.90;47.10;;;;;;6362143;27;20284;-56
2023/05/31 11:26:58;;;;;;;3.38;2.75;;;24.30;47.00;;;;;;6349342;27;20078;-55
2023/05/31 11:30:00;;;;;;;7.97;3.65;;;24.50;46.80;;;;;;6336643;27;20030;-55
2023/05/31 11:33:03;;;;;;;7.03;3.78;;;24.90;47.70;;;;;;6353724;27;20027;-54
2023/05/31 11:36:08;;;;;;;4.30;3.30;;;24.90;47.10;;;;;;6374311;27;20042;-55
2023/05/31 11:39:11;;;;;;;6.63;3.80;;;24.30;46.20;;;;;;6372286;27;20039;-56
2023/05/31 11:42:13;;;;;;;4.50;2.88;;;24.80;46.50;;;;;;6371500;27;20034;-56
2023/05/31 11:45:17;;;;;;;4.80;3.15;;;25.10;46.60;;;;;;6375111;27;20034;-54
2023/05/31 11:48:38;;;;;;;3.95;2.75;;;24.80;62.70;;;;;;6354804;27;20638;-58
2023/05/31 11:51:42;;;;;;;5.43;3.30;;;25.00;46.70;;;;;;6361594;27;20096;-57
2023/05/31 11:54:48;;;;;;;6.13;3.15;;;24.90;45.90;;;;;;6372788;27;20035;-60
2023/05/31 11:57:51;;;;;;;5.68;2.67;;;24.70;61.40;;;;;;6331461;27;20781;-52
2023/05/31 12:00:58;;;;;;;4.38;2.95;;;25.00;45.80;;;;;;6344785;27;20432;-56
2023/05/31 12:04:00;;;;;;;4.07;2.80;;;25.10;45.80;;;;;;6338175;27;20102;-55
2023/05/31 12:07:05;;;;;;;5.70;2.97;;;25.00;46.90;;;;;;6373271;27;20121;-51
2023/05/31 12:10:10;;;;;;;4.47;2.88;;;25.20;46.30;;;;;;6349171;27;20050;-51
2023/05/31 12:13:15;;;;;;;7.05;3.42;;;24.90;61.60;;;;;;6371278;27;20031;-58
2023/05/31 12:16:17;;;;;;;5.18;3.20;;;25.10;45.70;;;;;;6373890;27;20035;-58
2023/05/31 12:19:18;;;;;;;9.00;3.33;;;24.80;45.50;;;;;;6359996;27;20654;-57
2023/05/31 12:22:21;;;;;;;7.43;3.42;;;25.20;46.00;;;;;;6345767;27;20042;-55
2023/05/31 12:25:27;;;;;;;4.68;3.75;;;25.10;45.90;;;;;;6369041;27;20110;-56
2023/05/31 12:28:29;;;;;;;4.10;3.13;;;25.00;45.90;;;;;;6375409;27;20041;-56
2023/05/31 12:31:34;;;;;;;6.13;3.00;;;25.10;44.90;;;;;;6375182;27;20772;-54
2023/05/31 12:34:37;;;;;;;4.05;2.80;;;24.60;44.60;;;;;;6354199;27;20745;-56
2023/05/31 12:37:40;;;;;;;4.70;2.90;;;25.20;45.00;;;;;;6356636;27;20034;-55
2023/05/31 12:40:43;;;;;;;3.75;2.60;;;25.10;44.90;;;;;;6310215;27;20111;-55
2023/05/31 12:43:45;;;;;;;4.28;2.40;;;24.70;44.40;;;;;;6366801;27;20031;-57
2023/05/31 12:46:48;;;;;;;3.50;2.63;;;24.70;44.50;;;;;;6340918;27;20034;-52
2023/05/31 12:49:52;;;;;;;3.53;2.53;;;24.80;44.60;;;;;;6345748;27;20086;-54
2023/05/31 12:52:56;;;;;;;3.08;2.60;;;25.10;44.70;;;;;;6368406;27;20061;-54
2023/05/31 12:55:58;;;;;;;2.92;2.50;;;25.50;44.90;;;;;;6340217;27;20922;-53
2023/05/31 12:59:00;;;;;;;2.90;2.25;;;25.30;44.90;;;;;;6339511;27;20038;-55
2023/05/31 13:02:02;;;;;;;3.97;2.30;;;25.00;44.80;;;;;;6337468;27;20026;-56
2023/05/31 13:05:04;;;;;;;7.32;2.63;;;25.20;44.90;;;;;;6349282;27;20662;-57
2023/05/31 13:08:06;;;;;;;3.40;2.22;;;25.10;44.90;;;;;;6338080;27;20035;-54
2023/05/31 13:11:08;;;;;;;4.85;2.25;;;25.10;44.70;;;;;;6367986;27;20079;-56
2023/05/31 13:14:10;;;;;;;3.88;1.88;;;25.00;44.50;;;;;;6369783;27;20139;-57
2023/05/31 13:17:12;;;;;;;5.72;2.20;;;25.10;44.30;;;;;;6354619;27;20043;-57
2023/05/31 13:20:13;;;;;;;3.40;2.20;;;25.20;44.00;;;;;;6370458;27;20026;-56
2023/05/31 13:23:15;;;;;;;3.63;2.13;;;25.20;43.60;;;;;;6373073;27;20726;-55
2023/05/31 13:26:18;;;;;;;2.00;1.77;;;25.10;43.40;;;;;;6375858;27;20095;-56
2023/05/31 13:29:22;;;;;;;3.38;1.58;;;25.10;43.20;;;;;;6363903;27;20088;-56
2023/05/31 13:32:24;;;;;;;4.45;1.90;;;25.10;43.20;;;;;;6369775;27;20035;-54
2023/05/31 13:35:27;;;;;;;1.92;1.60;;;24.80;43.10;;;;;;6370528;27;20111;-52
2023/05/31 13:38:29;;;;;;;3.72;2.00;;;25.30;43.40;;;;;;6372438;27;20235;-55
2023/05/31 13:41:31;;;;;;;4.38;1.80;;;25.30;43.40;;;;;;6368184;27;20715;-56
2023/05/31 13:44:35;;;;;;;3.00;1.83;;;25.20;43.60;;;;;;6372319;27;20629;-54
2023/05/31 13:47:36;;;;;;;5.18;1.92;;;24.90;43.60;;;;;;6375555;27;20663;-54
2023/05/31 13:50:38;;;;;;;2.75;1.83;;;25.10;43.90;;;;;;6376002;27;20043;-56
2023/05/31 13:53:40;;;;;;;4.72;1.63;;;25.30;44.30;;;;;;6373274;27;20038;-56
2023/05/31 13:56:43;;;;;;;2.75;2.05;;;25.10;44.10;;;;;;6372673;27;20093;-56
2023/05/31 13:59:44;;;;;;;4.07;2.00;;;25.20;44.50;;;;;;6370187;27;20070;-57
2023/05/31 14:02:47;;;;;;;3.53;1.92;;;25.20;44.40;;;;;;6318665;27;20131;-58
2023/05/31 14:05:50;;;;;;;2.72;1.90;;;25.30;44.70;;;;;;6371503;27;20030;-54
2023/05/31 14:08:52;;;;;;;1.92;1.58;;;25.20;44.90;;;;;;6366560;27;20022;-56
2023/05/31 14:11:55;;;;;;;2.05;1.50;;;25.20;45.30;;;;;;6367671;27;20038;-53
2023/05/31 14:14:56;;;;;;;1.73;1.30;;;24.80;44.60;;;;;;6352172;27;20051;-48
2023/05/31 14:17:58;;;;;;;1.80;1.20;;;24.80;44.80;;;;;;6362015;27;20027;-52
2023/05/31 14:21:00;;;;;;;2.72;1.50;;;25.40;45.00;;;;;;6369537;27;20042;-49
2023/05/31 14:24:02;;;;;;;1.83;1.10;;;25.10;44.70;;;;;;6372816;27;20578;-54
2023/05/31 14:27:05;;;;;;;4.53;1.55;;;25.30;44.10;;;;;;6368571;27;20788;-52
2023/05/31 14:30:08;;;;;;;1.55;1.20;;;24.90;44.00;;;;;;6354497;27;20039;-53
2023/05/31 14:33:10;;;;;;;2.15;1.00;;;25.30;44.30;;;;;;6366458;27;20096;-48
2023/05/31 14:36:12;;;;;;;2.10;1.10;;;24.80;43.90;;;;;;6355782;27;20034;-52
2023/05/31 14:39:14;;;;;;;3.10;1.60;;;25.30;44.00;;;;;;6342661;27;20144;-53
2023/05/31 14:42:16;;;;;;;3.33;1.30;;;25.20;44.30;;;;;;6337094;27;20039;-46
2023/05/31 14:45:18;;;;;;;3.60;1.65;;;25.30;44.10;;;;;;6359839;27;20118;-49
2023/05/31 14:48:20;;;;;;;3.03;1.38;;;25.00;44.00;;;;;;6360994;27;20031;-54
2023/05/31 14:51:23;;;;;;;1.80;1.30;;;25.30;44.20;;;;;;6337821;27;20091;-52
2023/05/31 14:54:25;;;;;;;1.73;1.40;;;25.40;44.20;;;;;;6283656;27;20035;-52
2023/05/31 14:57:27;;;;;;;2.60;1.25;;;25.40;44.40;;;;;;6338833;27;20749;-52
2023/05/31 15:00:29;;;;;;;2.65;1.27;;;25.20;44.00;;;;;;6369876;27;20046;-53
2023/05/31 15:03:30;;;;;;;2.85;1.20;;;25.30;43.90;;;;;;6370342;27;20659;-51
2023/05/31 15:06:32;;;;;;;2.17;1.00;;;25.40;44.20;;;;;;6370785;27;20629;-50
2023/05/31 15:09:34;;;;;;;1.80;1.20;;;25.20;43.90;;;;;;6370023;27;20659;-52
2023/05/31 15:12:37;;;;;;;2.45;1.48;;;25.20;43.70;;;;;;6372322;27;20042;-54
2023/05/31 15:15:39;;;;;;;2.53;1.23;;;25.50;44.10;;;;;;6365732;27;20031;-55
2023/05/31 15:18:43;;;;;;;3.70;1.17;;;25.30;44.20;;;;;;6354634;27;20654;-50
2023/05/31 15:21:45;;;;;;;2.47;1.60;;;25.20;44.30;;;;;;6355229;27;20114;-51
2023/05/31 15:24:46;;;;;;;5.05;1.88;;;25.30;44.60;;;;;;6364128;27;20065;-53
2023/05/31 15:27:48;;;;;;;4.03;1.90;;;25.30;44.90;;;;;;6375017;27;20035;-52
2023/05/31 15:30:50;;;;;;;2.85;2.20;;;25.30;44.90;;;;;;6369600;27;20318;-54
2023/05/31 15:33:52;;;;;;;2.03;1.70;;;23.90;44.00;;;;;;6368654;27;20035;-51
2023/05/31 15:36:53;;;;;;;1.73;1.50;;;26.40;68.00;;;;;;6366415;27;20528;-52
2023/05/31 15:39:55;;;;;;;2.30;1.38;;;25.50;68.90;;;;;;6366455;27;20047;-55
2023/05/31 15:42:57;;;;;;;1.63;0.95;;;25.60;45.80;;;;;;6368715;27;20035;-53
2023/05/31 15:45:59;;;;;;;2.88;1.00;;;25.40;46.10;;;;;;6374037;27;20034;-52
2023/05/31 15:49:02;;;;;;;1.17;0.93;;;25.30;45.60;;;;;;6376368;27;20146;-53
2023/05/31 15:52:07;;;;;;;1.40;0.95;;;25.40;45.90;;;;;;6380399;27;20065;-52
2023/05/31 15:55:09;;;;;;;1.08;0.70;;;25.30;45.30;;;;;;6383239;27;20038;-52
2023/05/31 15:58:11;;;;;;;1.33;0.93;;;25.20;45.20;;;;;;6380931;27;20564;-53
2023/05/31 16:01:12;;;;;;;1.15;0.65;;;25.30;45.30;;;;;;6379938;27;20039;-49